Villa Atuel, Argentina
Current Conditions -  °F | °C
As of 10:00 PM on Saturday 20 Dec 2014 (Local Time) from SAME Reporting Station
Clear Clear  
Wind Chill: 66°   Ceiling: Unl
Heat Index: 66°   Visibility: 5mi
Dew Point: 36°   Wind: 16mph
Humidity: 32%   Direction: 140°SE
Pressure: 29.83"   Gusts: 31mph
Location:  34.83°S, 67.92°W
Report Text: SAME 210100Z 14014G27KT 8000 NSC 19/02 Q1010
Loading
Personal Weather Stations






























Interactive Weather Map New forecast layout! Learn more

10-Day Weather Forecast

Advertisements
Track Severe Weather on mobile